Time;durP1;ratioP1;P1;durP2;ratioP2;P2;SDS_P1;SDS_P2;PMS_P1;PMS_P2;Temp;Humidity;BMP_temperature;BMP_pressure;BME280_temperature;BME280_humidity;BME280_pressure;Samples;Min_cycle;Max_cycle;Signal;HPM_P1;HPM_P2
2022/12/29 00:00:08;;;;;;;3.58;2.70;;;9.80;99.90;;;;;;5096253;28;20475;-71
2022/12/29 00:02:33;;;;;;;4.22;3.40;;;9.80;99.90;;;;;;5093462;28;20059;-71
2022/12/29 00:04:59;;;;;;;5.25;3.03;;;9.90;99.90;;;;;;5099062;28;20052;-70
2022/12/29 00:07:25;;;;;;;4.53;2.85;;;9.90;99.90;;;;;;5091551;28;20044;-70
2022/12/29 00:09:51;;;;;;;3.15;2.60;;;10.00;99.90;;;;;;5084660;28;20089;-70
2022/12/29 00:12:16;;;;;;;4.32;3.03;;;10.00;99.90;;;;;;5068818;28;20044;-71
2022/12/29 00:17:26;;;;;;;3.38;2.53;;;10.00;99.90;;;;;;5078277;28;20048;-71
2022/12/29 00:36:39;;;;;;;4.57;2.92;;;10.10;99.90;;;;;;5087066;28;20040;-70
2022/12/29 00:45:03;;;;;;;3.70;2.75;;;10.20;99.90;;;;;;5081241;28;20078;-70
2022/12/29 00:47:29;;;;;;;4.43;3.10;;;10.10;99.90;;;;;;5100006;28;20040;-72
2022/12/29 00:49:55;;;;;;;4.22;2.70;;;10.10;99.90;;;;;;5082102;28;20402;-71
2022/12/29 00:52:20;;;;;;;3.70;2.90;;;10.10;99.90;;;;;;5093521;28;20136;-70
2022/12/29 00:54:46;;;;;;;4.65;3.00;;;10.10;99.90;;;;;;5101442;28;20079;-69
2022/12/29 00:57:12;;;;;;;4.78;2.33;;;10.10;99.90;;;;;;5083011;28;20137;-69
2022/12/29 00:59:40;;;;;;;4.10;2.97;;;10.10;99.90;;;;;;5081447;28;20052;-70
2022/12/29 01:02:06;;;;;;;3.38;2.60;;;10.10;99.90;;;;;;5100303;28;20070;-72
2022/12/29 01:04:32;;;;;;;3.60;2.13;;;10.20;99.90;;;;;;5087849;28;20574;-70
2022/12/29 01:06:58;;;;;;;3.20;1.73;;;10.20;99.90;;;;;;5082403;28;20412;-71
2022/12/29 01:12:16;;;;;;;2.88;2.10;;;10.30;99.90;;;;;;5074475;28;20046;-69
2022/12/29 01:14:41;;;;;;;3.17;2.25;;;10.40;99.90;;;;;;5089942;28;20068;-70
2022/12/29 01:17:07;;;;;;;3.17;2.22;;;10.40;99.90;;;;;;5060051;28;20125;-70
2022/12/29 01:19:33;;;;;;;3.15;2.10;;;10.50;99.90;;;;;;5074284;28;20072;-70
2022/12/29 01:21:59;;;;;;;2.75;1.98;;;10.50;99.90;;;;;;5093466;28;20103;-73
2022/12/29 01:24:25;;;;;;;3.08;2.10;;;10.50;99.90;;;;;;5078847;28;20133;-70
2022/12/29 01:26:51;;;;;;;2.45;1.77;;;10.60;99.90;;;;;;5087685;28;20040;-69
2022/12/29 01:29:17;;;;;;;3.53;2.40;;;10.60;99.90;;;;;;5078067;28;20134;-70
2022/12/29 01:31:43;;;;;;;3.00;2.05;;;10.60;99.90;;;;;;5083970;28;20058;-71
2022/12/29 01:34:09;;;;;;;2.78;1.70;;;10.70;99.90;;;;;;5051254;28;20052;-70
2022/12/29 01:36:34;;;;;;;2.70;2.00;;;10.70;99.90;;;;;;5099904;28;20912;-71
2022/12/29 01:39:00;;;;;;;2.70;2.03;;;10.70;99.90;;;;;;5096892;28;20139;-70
2022/12/29 01:41:26;;;;;;;3.53;1.67;;;10.70;99.90;;;;;;5085556;28;20048;-70
2022/12/29 01:43:56;;;;;;;3.90;2.30;;;10.70;99.90;;;;;;5082066;28;20040;-70
2022/12/29 01:46:39;;;;;;;2.88;1.90;;;10.70;99.90;;;;;;5078134;28;20052;-71
2022/12/29 01:49:07;;;;;;;2.08;1.60;;;10.70;99.90;;;;;;5080331;28;20048;-70
2022/12/29 01:51:42;;;;;;;2.40;1.75;;;10.80;99.90;;;;;;5082051;28;20434;-71
2022/12/29 01:54:22;;;;;;;2.53;1.60;;;10.80;99.90;;;;;;5084125;28;20123;-70
2022/12/29 01:56:49;;;;;;;2.60;1.70;;;10.80;99.90;;;;;;5087270;28;20040;-70
2022/12/29 01:59:21;;;;;;;2.70;1.85;;;10.80;99.90;;;;;;5080819;28;20044;-72
2022/12/29 02:01:47;;;;;;;2.42;1.55;;;10.80;99.90;;;;;;5083220;28;20055;-69
2022/12/29 02:04:13;;;;;;;2.50;1.73;;;10.80;99.90;;;;;;5081772;28;20389;-70
2022/12/29 02:06:54;;;;;;;2.80;1.60;;;10.90;99.90;;;;;;5086963;28;20039;-69
2022/12/29 02:09:21;;;;;;;2.47;1.70;;;10.80;99.90;;;;;;5098314;28;20051;-71
2022/12/29 02:11:47;;;;;;;2.45;1.42;;;10.80;99.90;;;;;;5098861;28;20500;-73
2022/12/29 02:14:14;;;;;;;3.35;1.60;;;10.90;99.90;;;;;;5080654;28;20056;-72
2022/12/29 02:17:12;;;;;;;2.35;1.58;;;10.90;99.90;;;;;;5085699;28;20512;-71
2022/12/29 02:20:08;;;;;;;2.33;1.30;;;11.00;99.90;;;;;;5083476;28;20048;-72
2022/12/29 02:22:54;;;;;;;2.17;1.30;;;11.00;99.90;;;;;;5085425;28;20044;-71
2022/12/29 02:25:46;;;;;;;2.33;1.48;;;11.00;99.90;;;;;;5087009;28;20108;-72
2022/12/29 02:28:29;;;;;;;2.53;1.50;;;10.90;99.90;;;;;;5088793;28;20048;-71
2022/12/29 02:31:07;;;;;;;2.42;1.42;;;10.80;99.90;;;;;;5089428;28;20044;-73
2022/12/29 02:34:06;;;;;;;2.38;1.10;;;10.90;99.90;;;;;;5095023;28;20500;-72
2022/12/29 02:36:46;;;;;;;2.42;1.20;;;10.90;99.90;;;;;;5080897;28;20041;-70
2022/12/29 02:39:43;;;;;;;2.47;1.40;;;10.90;99.90;;;;;;5081037;28;20048;-71
2022/12/29 02:42:24;;;;;;;3.35;1.50;;;10.80;99.90;;;;;;5081687;28;20128;-71
2022/12/29 02:45:04;;;;;;;2.30;1.35;;;10.80;99.90;;;;;;5098708;28;20057;-72
2022/12/29 02:47:36;;;;;;;2.22;1.50;;;10.70;99.90;;;;;;5066199;28;20080;-71
2022/12/29 02:50:14;;;;;;;2.00;1.40;;;10.50;99.90;;;;;;5082595;28;20039;-72
2022/12/29 02:52:48;;;;;;;2.35;1.65;;;10.40;99.90;;;;;;5098645;28;20048;-72
2022/12/29 02:55:14;;;;;;;2.15;1.33;;;10.40;99.90;;;;;;5082721;28;20040;-70
2022/12/29 02:57:39;;;;;;;2.40;1.70;;;10.30;99.90;;;;;;5081750;28;20091;-71
2022/12/29 03:00:16;;;;;;;2.10;1.60;;;10.20;99.90;;;;;;5079005;28;20036;-71
2022/12/29 03:03:00;;;;;;;2.00;1.50;;;10.10;99.90;;;;;;5081584;28;20095;-71
2022/12/29 03:05:41;;;;;;;3.10;1.75;;;10.10;99.90;;;;;;5079506;28;20412;-70
2022/12/29 03:08:28;;;;;;;3.05;1.65;;;10.00;99.90;;;;;;5078703;28;20033;-70
2022/12/29 03:11:05;;;;;;;2.75;1.50;;;10.00;99.90;;;;;;5081336;28;20049;-71
2022/12/29 03:16:31;;;;;;;2.95;1.70;;;9.90;99.90;;;;;;5080215;28;20056;-70
2022/12/29 03:19:23;;;;;;;2.75;1.60;;;9.90;99.90;;;;;;5083634;28;20445;-75
2022/12/29 03:24:43;;;;;;;2.25;1.60;;;9.90;99.90;;;;;;5093757;28;20040;-71
2022/12/29 03:27:13;;;;;;;3.53;1.88;;;9.80;99.90;;;;;;5080146;28;20330;-70
2022/12/29 03:30:03;;;;;;;2.78;1.58;;;9.80;99.90;;;;;;5085592;28;20054;-71
2022/12/29 03:32:38;;;;;;;2.67;1.73;;;9.80;99.90;;;;;;5097931;28;20178;-72
2022/12/29 03:35:06;;;;;;;2.67;1.60;;;9.80;99.90;;;;;;5090079;28;20036;-73
2022/12/29 03:37:39;;;;;;;2.50;1.60;;;9.80;99.90;;;;;;5091402;28;20051;-71
2022/12/29 03:40:05;;;;;;;2.40;1.50;;;9.80;99.90;;;;;;5090743;28;20044;-71
2022/12/29 03:42:34;;;;;;;2.15;1.52;;;9.80;99.90;;;;;;5095277;28;20404;-71
2022/12/29 03:45:00;;;;;;;2.20;1.27;;;9.90;99.90;;;;;;5082263;28;20044;-72
2022/12/29 03:47:26;;;;;;;1.70;1.10;;;10.00;99.90;;;;;;5077474;28;20043;-71
2022/12/29 03:49:52;;;;;;;2.58;1.30;;;10.10;99.90;;;;;;5089562;28;20046;-72
2022/12/29 03:52:18;;;;;;;2.97;1.40;;;10.10;99.90;;;;;;5090908;28;20127;-71
2022/12/29 03:54:45;;;;;;;2.00;1.17;;;10.20;99.90;;;;;;5078700;28;20123;-73
2022/12/29 03:57:11;;;;;;;2.40;1.10;;;10.20;99.90;;;;;;5079381;28;20040;-72
2022/12/29 03:59:37;;;;;;;2.58;1.42;;;10.20;99.90;;;;;;5060480;28;20078;-75
2022/12/29 04:02:02;;;;;;;3.03;1.33;;;10.30;99.90;;;;;;5077559;28;20498;-72
2022/12/29 04:04:28;;;;;;;2.42;1.13;;;10.30;99.90;;;;;;5090591;28;20047;-71
2022/12/29 04:06:54;;;;;;;2.30;1.20;;;10.30;99.90;;;;;;5066992;28;20052;-71
2022/12/29 04:09:20;;;;;;;2.00;1.10;;;10.30;99.90;;;;;;5077149;28;20048;-72
2022/12/29 04:11:45;;;;;;;2.45;0.98;;;10.30;99.90;;;;;;5093926;28;20040;-70
2022/12/29 04:14:11;;;;;;;2.25;1.05;;;10.40;99.90;;;;;;5065806;28;20532;-71
2022/12/29 04:16:38;;;;;;;1.55;0.80;;;10.40;99.90;;;;;;5078564;28;20087;-72
2022/12/29 04:19:05;;;;;;;1.58;0.95;;;10.30;99.90;;;;;;5078549;28;20045;-73
2022/12/29 04:21:31;;;;;;;2.45;0.80;;;10.40;99.90;;;;;;5068111;28;20102;-73
2022/12/29 04:23:57;;;;;;;1.45;0.80;;;10.40;99.90;;;;;;5080925;28;20040;-72
2022/12/29 04:26:22;;;;;;;2.25;0.80;;;10.50;99.90;;;;;;5096397;28;20083;-70
2022/12/29 04:28:48;;;;;;;2.42;0.90;;;10.40;99.90;;;;;;5101327;28;20433;-72
2022/12/29 04:31:14;;;;;;;2.45;1.13;;;10.50;99.90;;;;;;5100052;28;20040;-73
2022/12/29 04:33:40;;;;;;;2.30;0.80;;;10.50;99.90;;;;;;5080825;28;20076;-72
2022/12/29 04:36:06;;;;;;;1.50;0.80;;;10.50;99.90;;;;;;5081486;28;20044;-71
2022/12/29 04:38:32;;;;;;;2.40;0.80;;;10.50;99.90;;;;;;5091151;28;20029;-70
2022/12/29 04:41:00;;;;;;;1.42;0.80;;;10.50;99.90;;;;;;5078153;28;20045;-74
2022/12/29 04:43:26;;;;;;;1.23;0.70;;;10.50;99.90;;;;;;5095282;28;20103;-71
2022/12/29 04:45:51;;;;;;;2.47;0.80;;;10.50;99.90;;;;;;5098395;28;20063;-71
2022/12/29 04:48:17;;;;;;;1.73;0.70;;;10.40;99.90;;;;;;5093628;28;20127;-72
2022/12/29 04:50:43;;;;;;;1.80;0.80;;;10.40;99.90;;;;;;5087945;28;20062;-71
2022/12/29 04:53:09;;;;;;;1.95;0.75;;;10.50;99.90;;;;;;5083410;28;20047;-71
2022/12/29 04:55:35;;;;;;;2.22;0.88;;;10.40;99.90;;;;;;5081841;28;20582;-70
2022/12/29 04:58:01;;;;;;;3.30;0.80;;;10.40;99.90;;;;;;5084440;28;20048;-70
2022/12/29 05:00:26;;;;;;;2.03;0.95;;;10.40;99.90;;;;;;5080636;28;20112;-72
2022/12/29 05:02:52;;;;;;;1.65;0.80;;;10.40;99.90;;;;;;5079265;28;20419;-73
2022/12/29 05:05:18;;;;;;;1.67;0.77;;;10.40;99.90;;;;;;5077142;28;20044;-74
2022/12/29 05:07:44;;;;;;;3.08;0.90;;;10.40;99.90;;;;;;5085937;28;20055;-73
2022/12/29 05:10:10;;;;;;;2.05;0.70;;;10.40;99.90;;;;;;5056692;28;20049;-72
2022/12/29 05:12:37;;;;;;;1.63;1.05;;;10.40;99.90;;;;;;5076192;28;20032;-72
2022/12/29 05:15:04;;;;;;;1.95;0.85;;;10.50;99.90;;;;;;5076372;28;20039;-71
2022/12/29 05:17:30;;;;;;;3.95;1.00;;;10.40;99.90;;;;;;5076814;28;20043;-71
2022/12/29 05:19:55;;;;;;;1.50;0.80;;;10.40;99.90;;;;;;5066647;28;20481;-72
2022/12/29 05:22:22;;;;;;;2.67;0.98;;;10.40;99.90;;;;;;5077258;28;20070;-73
2022/12/29 05:24:47;;;;;;;2.85;0.98;;;10.50;99.90;;;;;;5090151;28;20047;-71
2022/12/29 05:27:13;;;;;;;2.20;0.90;;;10.40;99.90;;;;;;5080981;28;20046;-71
2022/12/29 05:29:39;;;;;;;2.00;1.10;;;10.40;99.90;;;;;;5097578;28;20040;-70
2022/12/29 05:32:05;;;;;;;2.42;0.90;;;10.30;99.90;;;;;;5090567;28;20063;-71
2022/12/29 05:34:31;;;;;;;2.38;1.10;;;10.30;99.90;;;;;;5076454;28;20037;-71
2022/12/29 05:36:56;;;;;;;1.33;0.70;;;10.30;99.90;;;;;;5089050;28;20048;-70
2022/12/29 05:39:22;;;;;;;2.88;0.90;;;10.30;99.90;;;;;;5078950;28;20098;-71
2022/12/29 05:41:48;;;;;;;1.95;1.00;;;10.30;99.90;;;;;;5066905;28;20096;-71
2022/12/29 05:44:14;;;;;;;2.75;1.17;;;10.30;99.90;;;;;;5096934;28;20048;-70
2022/12/29 05:46:40;;;;;;;2.83;1.48;;;10.30;99.90;;;;;;5078188;28;20481;-71
2022/12/29 05:49:06;;;;;;;1.48;0.88;;;10.30;99.90;;;;;;5078742;28;20096;-72
2022/12/29 05:51:32;;;;;;;1.67;0.95;;;10.40;99.90;;;;;;5065709;28;20032;-71
2022/12/29 05:53:57;;;;;;;2.55;1.17;;;10.40;99.90;;;;;;5099280;28;20109;-72
2022/12/29 05:56:23;;;;;;;2.50;1.10;;;10.30;99.90;;;;;;5076874;28;20040;-71
2022/12/29 05:58:49;;;;;;;3.15;1.10;;;10.40;99.90;;;;;;5098921;28;20048;-71
2022/12/29 06:01:15;;;;;;;2.17;1.08;;;10.40;99.90;;;;;;5079789;28;20053;-71
2022/12/29 06:03:41;;;;;;;1.90;0.90;;;10.30;99.90;;;;;;5077025;28;20544;-71
2022/12/29 06:06:06;;;;;;;3.50;1.42;;;10.40;99.90;;;;;;5083492;28;20123;-71
2022/12/29 06:08:32;;;;;;;2.30;0.90;;;10.20;99.90;;;;;;5090251;28;20379;-72
2022/12/29 06:10:58;;;;;;;1.90;0.73;;;10.30;99.90;;;;;;5089415;28;20052;-73
2022/12/29 06:13:24;;;;;;;3.53;1.15;;;10.30;99.90;;;;;;5075810;28;20483;-73
2022/12/29 06:15:50;;;;;;;2.65;0.82;;;10.30;99.90;;;;;;5088989;28;20047;-73
2022/12/29 06:18:16;;;;;;;2.60;0.95;;;10.20;99.90;;;;;;5082891;28;20036;-71
2022/12/29 06:20:42;;;;;;;4.05;1.17;;;10.30;99.90;;;;;;5075992;28;20510;-72
2022/12/29 06:23:08;;;;;;;3.70;1.02;;;10.20;99.90;;;;;;5111010;28;20064;-73
2022/12/29 06:25:35;;;;;;;2.20;0.80;;;10.20;99.90;;;;;;5076801;28;20136;-72
2022/12/29 06:28:02;;;;;;;2.90;1.20;;;10.10;99.90;;;;;;5057329;28;20670;-72
2022/12/29 06:30:28;;;;;;;2.97;0.85;;;10.10;99.90;;;;;;5071933;28;20040;-74
2022/12/29 06:32:54;;;;;;;1.83;0.70;;;10.10;99.90;;;;;;5094557;28;20052;-71
2022/12/29 06:35:22;;;;;;;2.45;0.73;;;10.10;99.90;;;;;;5080374;28;20076;-71
2022/12/29 06:37:48;;;;;;;5.00;1.13;;;10.10;99.90;;;;;;5072282;28;20055;-70
2022/12/29 06:40:13;;;;;;;2.00;0.80;;;10.00;99.90;;;;;;5100809;28;20052;-74
2022/12/29 06:42:39;;;;;;;3.42;0.95;;;10.00;99.90;;;;;;5089077;28;20046;-73
2022/12/29 06:45:05;;;;;;;3.47;1.13;;;10.00;99.90;;;;;;5084524;28;20102;-70
2022/12/29 06:47:31;;;;;;;2.45;0.90;;;10.00;99.90;;;;;;5061481;28;20071;-71
2022/12/29 06:49:56;;;;;;;2.30;0.90;;;10.00;99.90;;;;;;5082925;28;20041;-71
2022/12/29 06:52:23;;;;;;;1.50;0.73;;;10.00;99.90;;;;;;5081231;28;20036;-71
2022/12/29 06:54:50;;;;;;;3.60;1.20;;;10.30;99.90;;;;;;5086010;28;20093;-73
2022/12/29 06:57:15;;;;;;;6.63;0.90;;;10.10;99.90;;;;;;5081825;28;20131;-70
2022/12/29 06:59:41;;;;;;;2.58;0.90;;;10.10;99.90;;;;;;5082781;28;20076;-73
2022/12/29 07:02:09;;;;;;;3.78;1.00;;;10.10;99.90;;;;;;5084088;28;20076;-72
2022/12/29 07:04:34;;;;;;;2.58;0.98;;;10.00;99.90;;;;;;5079701;28;20579;-71
2022/12/29 07:07:00;;;;;;;4.22;1.20;;;10.10;99.90;;;;;;5079378;28;20067;-71
2022/12/29 07:09:26;;;;;;;3.20;1.13;;;10.00;99.90;;;;;;5095563;28;20044;-72
2022/12/29 07:11:51;;;;;;;3.38;1.10;;;10.00;99.90;;;;;;5100469;28;20047;-70
2022/12/29 07:14:17;;;;;;;4.53;1.10;;;10.00;99.90;;;;;;5079273;28;20080;-72
2022/12/29 07:16:43;;;;;;;2.58;1.08;;;10.00;99.90;;;;;;5085528;28;20040;-74
2022/12/29 07:19:08;;;;;;;2.92;0.98;;;10.00;99.90;;;;;;5095206;28;20476;-71
2022/12/29 07:21:34;;;;;;;3.10;1.00;;;10.00;99.90;;;;;;5080754;28;20131;-72
2022/12/29 07:24:00;;;;;;;2.92;1.02;;;10.00;99.90;;;;;;5083197;28;20047;-71
2022/12/29 07:26:25;;;;;;;3.90;1.33;;;10.00;99.90;;;;;;5081072;28;20056;-72
2022/12/29 07:28:51;;;;;;;4.55;1.25;;;9.90;99.90;;;;;;5062834;28;20102;-69
2022/12/29 07:31:20;;;;;;;3.78;1.10;;;9.80;99.90;;;;;;5078966;28;20050;-73
2022/12/29 07:33:47;;;;;;;3.60;1.27;;;9.80;99.90;;;;;;5086096;28;20037;-71
2022/12/29 07:36:14;;;;;;;5.93;1.50;;;9.80;99.90;;;;;;5081062;28;20052;-71
2022/12/29 07:38:41;;;;;;;4.40;1.38;;;9.80;99.90;;;;;;5082578;28;20048;-73
2022/12/29 07:41:07;;;;;;;4.43;1.15;;;9.80;99.90;;;;;;5088319;28;20036;-71
2022/12/29 07:43:33;;;;;;;3.78;1.25;;;9.80;99.90;;;;;;5086179;28;20043;-71
2022/12/29 07:45:59;;;;;;;3.80;1.27;;;9.70;99.90;;;;;;5075648;28;20050;-70
2022/12/29 07:48:24;;;;;;;4.10;1.55;;;9.70;99.90;;;;;;5084695;28;20072;-70
2022/12/29 07:50:51;;;;;;;4.15;1.35;;;9.80;99.90;;;;;;5097106;28;20133;-70
2022/12/29 07:53:17;;;;;;;3.45;1.48;;;9.70;99.90;;;;;;5071395;28;20037;-71
2022/12/29 07:55:43;;;;;;;3.25;1.08;;;9.70;99.90;;;;;;5061376;28;20052;-74
2022/12/29 07:58:08;;;;;;;4.47;1.95;;;9.70;99.90;;;;;;5079806;28;20040;-71
2022/12/29 08:00:34;;;;;;;2.80;0.90;;;9.80;99.90;;;;;;5076948;28;20476;-70
2022/12/29 08:03:00;;;;;;;5.25;1.10;;;9.80;99.90;;;;;;5077690;28;20080;-70
2022/12/29 08:05:25;;;;;;;3.45;1.33;;;9.70;99.90;;;;;;5084542;28;20079;-71
2022/12/29 08:07:51;;;;;;;3.53;1.20;;;9.80;99.90;;;;;;5097030;28;20046;-71
2022/12/29 08:10:17;;;;;;;3.65;1.30;;;9.80;99.90;;;;;;5088171;28;20067;-73
2022/12/29 08:12:43;;;;;;;3.55;0.98;;;9.80;99.90;;;;;;5077138;28;20051;-71
2022/12/29 08:15:11;;;;;;;4.35;1.10;;;9.80;99.90;;;;;;5061417;28;20048;-69
2022/12/29 08:17:37;;;;;;;3.80;1.40;;;9.90;99.90;;;;;;5076027;28;20048;-70
2022/12/29 08:20:04;;;;;;;3.30;1.50;;;9.80;99.90;;;;;;5080005;28;20036;-71
2022/12/29 08:22:30;;;;;;;1.98;0.93;;;9.80;99.90;;;;;;5074158;28;20122;-72
2022/12/29 08:24:56;;;;;;;5.78;1.25;;;9.70;99.90;;;;;;5049106;28;20041;-71
2022/12/29 08:27:21;;;;;;;3.70;1.33;;;9.70;99.90;;;;;;5079609;28;20100;-71
2022/12/29 08:29:48;;;;;;;5.43;1.40;;;9.70;99.90;;;;;;5077261;28;20044;-71
2022/12/29 08:32:14;;;;;;;3.35;1.13;;;9.70;99.90;;;;;;5066772;28;20048;-70
2022/12/29 08:34:39;;;;;;;4.38;1.60;;;9.90;99.90;;;;;;5076060;28;20044;-71
2022/12/29 08:37:05;;;;;;;3.75;1.10;;;9.70;99.90;;;;;;5073113;28;20048;-73
2022/12/29 08:39:31;;;;;;;5.18;1.30;;;9.70;99.90;;;;;;5077270;28;20078;-70
2022/12/29 08:41:56;;;;;;;3.50;1.20;;;9.80;99.90;;;;;;5076918;28;20071;-70
2022/12/29 08:44:22;;;;;;;6.03;1.27;;;9.70;99.90;;;;;;5060553;28;20083;-71
2022/12/29 08:46:48;;;;;;;5.43;2.05;;;9.80;99.90;;;;;;5075932;28;20040;-70
2022/12/29 08:49:14;;;;;;;3.45;0.90;;;9.80;99.90;;;;;;5079459;28;20051;-73
2022/12/29 08:51:39;;;;;;;4.32;1.27;;;9.80;99.90;;;;;;5077466;28;20052;-72
2022/12/29 08:54:05;;;;;;;2.97;1.10;;;9.80;99.90;;;;;;5061417;28;20048;-72
2022/12/29 08:56:31;;;;;;;2.95;0.90;;;9.90;99.90;;;;;;5071603;28;20778;-72
2022/12/29 08:58:57;;;;;;;3.53;1.02;;;9.80;99.90;;;;;;5098205;28;20041;-72
2022/12/29 09:01:23;;;;;;;2.80;0.90;;;9.80;99.90;;;;;;5075388;28;20048;-70
2022/12/29 09:03:49;;;;;;;4.63;1.10;;;9.70;99.90;;;;;;5077480;28;20584;-70
2022/12/29 09:06:16;;;;;;;3.40;1.05;;;9.70;99.90;;;;;;5077640;28;20048;-72
2022/12/29 09:08:43;;;;;;;3.55;1.48;;;9.70;99.90;;;;;;5076901;28;20125;-71
2022/12/29 09:11:14;;;;;;;3.53;0.88;;;9.60;99.90;;;;;;5068964;28;20101;-71
2022/12/29 09:13:41;;;;;;;2.83;1.13;;;9.60;99.90;;;;;;5056285;28;20056;-73
2022/12/29 09:16:07;;;;;;;2.88;1.02;;;9.70;99.90;;;;;;5077399;28;20532;-71
2022/12/29 09:18:33;;;;;;;2.65;1.10;;;9.70;99.90;;;;;;5044921;28;20053;-70
2022/12/29 09:21:04;;;;;;;1.90;1.00;;;9.80;99.90;;;;;;5093840;28;20554;-70
2022/12/29 09:23:30;;;;;;;2.58;1.13;;;9.80;99.90;;;;;;5060339;28;20049;-73
2022/12/29 09:25:55;;;;;;;3.75;1.13;;;9.80;99.90;;;;;;5075201;28;20155;-70
2022/12/29 09:28:22;;;;;;;4.10;1.45;;;9.70;99.90;;;;;;5079280;28;20500;-72
2022/12/29 09:30:48;;;;;;;3.88;0.85;;;9.70;99.90;;;;;;5071837;28;20166;-71
2022/12/29 09:33:15;;;;;;;4.65;1.67;;;9.70;99.90;;;;;;5076738;28;20079;-71
2022/12/29 09:35:45;;;;;;;3.53;1.35;;;9.60;99.90;;;;;;5078234;28;20044;-71
2022/12/29 09:38:11;;;;;;;5.22;1.15;;;9.60;99.90;;;;;;5073874;28;20056;-71
2022/12/29 09:40:39;;;;;;;3.20;1.10;;;9.70;99.90;;;;;;5077678;28;20063;-72
2022/12/29 09:43:35;;;;;;;5.15;1.40;;;9.60;99.90;;;;;;5075340;28;20083;-70
2022/12/29 09:46:13;;;;;;;3.38;0.88;;;9.70;99.90;;;;;;5058427;28;20072;-71
2022/12/29 09:48:47;;;;;;;4.60;1.30;;;9.60;99.90;;;;;;5058652;28;20099;-71
2022/12/29 09:51:22;;;;;;;4.03;1.48;;;9.60;99.90;;;;;;5055350;28;20060;-70
2022/12/29 09:53:58;;;;;;;3.33;1.15;;;9.50;99.90;;;;;;5057569;28;20049;-71
2022/12/29 09:56:26;;;;;;;9.65;2.65;;;9.40;99.90;;;;;;5056813;28;20044;-70
2022/12/29 09:59:04;;;;;;;2.22;1.02;;;9.40;99.90;;;;;;5056723;28;20102;-71
2022/12/29 10:02:20;;;;;;;3.88;1.23;;;9.50;99.90;;;;;;5056804;28;20120;-69
2022/12/29 10:04:46;;;;;;;4.30;1.25;;;9.50;99.90;;;;;;5050443;28;20042;-71
2022/12/29 10:07:29;;;;;;;4.15;1.40;;;9.40;99.90;;;;;;5070724;28;20108;-71
2022/12/29 10:10:10;;;;;;;3.20;1.17;;;9.40;99.90;;;;;;5076914;28;20052;-69
2022/12/29 10:13:21;;;;;;;3.55;1.50;;;9.40;99.90;;;;;;5078919;28;20049;-71
2022/12/29 10:15:55;;;;;;;3.78;1.30;;;9.50;99.90;;;;;;4987094;28;20060;-73
2022/12/29 10:18:32;;;;;;;4.53;1.23;;;9.60;99.90;;;;;;5055020;28;20162;-70
2022/12/29 10:21:07;;;;;;;5.70;1.20;;;9.70;99.90;;;;;;5058907;28;20117;-70
2022/12/29 10:23:50;;;;;;;2.92;1.40;;;9.70;99.90;;;;;;5062273;28;20072;-71
2022/12/29 10:26:27;;;;;;;6.97;2.50;;;9.80;99.90;;;;;;5060105;28;20049;-69
2022/12/29 10:29:20;;;;;;;4.30;1.30;;;9.80;99.90;;;;;;5060205;28;20045;-71
2022/12/29 10:31:57;;;;;;;3.75;1.23;;;9.80;99.90;;;;;;5093842;28;20056;-72
2022/12/29 10:34:26;;;;;;;9.63;1.95;;;9.80;99.90;;;;;;5058376;28;20076;-74
2022/12/29 10:37:00;;;;;;;5.28;1.40;;;9.80;99.90;;;;;;5060285;28;20057;-72
2022/12/29 10:39:49;;;;;;;4.55;1.33;;;9.90;99.90;;;;;;5043188;28;20040;-70
2022/12/29 10:42:40;;;;;;;4.50;1.52;;;9.80;99.90;;;;;;5060008;28;20041;-70
2022/12/29 10:45:13;;;;;;;3.88;1.10;;;9.80;99.90;;;;;;5076950;28;20093;-71
2022/12/29 10:47:49;;;;;;;5.60;1.00;;;9.90;99.90;;;;;;5078390;28;20055;-70
2022/12/29 10:50:15;;;;;;;;;;;9.80;99.90;;;;;;5081951;28;20130;-71
2022/12/29 10:52:41;;;;;;;3.17;1.13;;;9.80;99.90;;;;;;5044907;28;19920;-69
2022/12/29 10:55:27;;;;;;;3.58;1.33;;;9.80;99.90;;;;;;5076444;28;20056;-71
2022/12/29 10:57:57;;;;;;;4.80;1.38;;;9.80;99.90;;;;;;5078885;28;20103;-71
2022/12/29 11:00:23;;;;;;;5.40;1.58;;;9.70;99.90;;;;;;5079011;28;20079;-69
2022/12/29 11:03:08;;;;;;;3.72;1.20;;;9.50;99.90;;;;;;5081016;28;20676;-71
2022/12/29 11:06:22;;;;;;;3.55;1.20;;;9.50;99.90;;;;;;5080503;28;20052;-72
2022/12/29 11:08:56;;;;;;;3.22;1.30;;;9.50;99.90;;;;;;5074068;28;20067;-72
2022/12/29 11:11:31;;;;;;;4.65;1.05;;;9.60;99.90;;;;;;5081432;28;20059;-71
2022/12/29 11:14:19;;;;;;;3.75;1.08;;;9.60;99.90;;;;;;5079934;28;20346;-70
2022/12/29 11:16:55;;;;;;;3.60;1.10;;;9.60;99.90;;;;;;5057569;28;20052;-71
2022/12/29 11:19:24;;;;;;;7.05;1.48;;;9.60;99.90;;;;;;5043568;28;20435;-70
2022/12/29 11:21:50;;;;;;;2.63;1.50;;;9.60;99.90;;;;;;5039926;28;20044;-70
2022/12/29 11:24:25;;;;;;;4.85;1.40;;;9.50;99.90;;;;;;5076067;28;20037;-71
2022/12/29 11:27:08;;;;;;;4.70;1.00;;;9.50;99.90;;;;;;5058887;28;20056;-69
2022/12/29 11:29:39;;;;;;;5.72;1.92;;;9.50;99.90;;;;;;5057759;28;20072;-70
2022/12/29 11:32:21;;;;;;;5.05;1.55;;;9.50;99.90;;;;;;5050959;28;20087;-68
2022/12/29 11:34:48;;;;;;;2.92;1.50;;;9.40;99.90;;;;;;5079914;28;20486;-68
2022/12/29 11:37:29;;;;;;;3.15;1.35;;;9.20;99.90;;;;;;5081791;28;20506;-68
2022/12/29 11:40:07;;;;;;;4.60;1.40;;;9.00;99.90;;;;;;5062508;28;20052;-69
2022/12/29 11:43:04;;;;;;;3.45;1.23;;;8.90;99.90;;;;;;5076726;28;20098;-71
2022/12/29 11:45:33;;;;;;;4.93;1.67;;;8.90;99.90;;;;;;5079477;28;20057;-70
2022/12/29 11:48:06;;;;;;;5.63;1.35;;;8.90;99.90;;;;;;5076757;28;20041;-70
2022/12/29 11:50:37;;;;;;;5.72;1.70;;;8.90;99.90;;;;;;5080214;28;20049;-70
2022/12/29 11:53:24;;;;;;;4.18;1.20;;;9.00;99.90;;;;;;5062695;28;20079;-72
2022/12/29 11:55:59;;;;;;;4.82;1.48;;;9.00;99.90;;;;;;5078852;28;20055;-71
2022/12/29 11:58:33;;;;;;;3.22;1.30;;;9.10;99.90;;;;;;5080131;28;20064;-71
2022/12/29 12:01:05;;;;;;;2.92;1.35;;;9.00;99.90;;;;;;5077597;28;20052;-71
2022/12/29 12:03:34;;;;;;;5.40;1.30;;;9.00;99.90;;;;;;5078657;28;20072;-70
2022/12/29 12:06:05;;;;;;;3.10;1.08;;;9.10;99.90;;;;;;5069188;28;20092;-71
2022/12/29 12:08:42;;;;;;;4.60;1.70;;;9.10;99.90;;;;;;5070232;28;21190;-72
2022/12/29 12:11:15;;;;;;;5.78;1.60;;;9.10;99.90;;;;;;5074285;28;20123;-72
2022/12/29 12:14:18;;;;;;;5.35;1.50;;;9.10;99.90;;;;;;5075882;28;20045;-70
2022/12/29 12:16:55;;;;;;;5.05;1.50;;;9.10;99.90;;;;;;5066457;28;20056;-71
2022/12/29 12:19:33;;;;;;;;;;;9.10;99.90;;;;;;5064311;28;20048;-70
2022/12/29 12:22:17;;;;;;;8.45;2.22;;;9.10;99.90;;;;;;5073523;28;20456;-69
2022/12/29 12:25:12;;;;;;;5.90;1.60;;;9.10;99.90;;;;;;5058414;28;20515;-71
2022/12/29 12:27:46;;;;;;;5.80;1.50;;;9.20;99.90;;;;;;5050854;28;20401;-71
2022/12/29 12:30:16;;;;;;;3.78;1.50;;;9.20;99.90;;;;;;5067298;28;20037;-73
2022/12/29 12:32:52;;;;;;;6.07;2.10;;;9.20;99.90;;;;;;5063141;28;20053;-70
2022/12/29 12:35:45;;;;;;;3.67;1.95;;;9.20;99.90;;;;;;5060532;28;20072;-72
2022/12/29 12:38:26;;;;;;;8.30;1.60;;;9.20;99.90;;;;;;5057989;28;20053;-70
2022/12/29 12:41:24;;;;;;;6.20;1.48;;;9.20;99.90;;;;;;5058452;28;20070;-70
2022/12/29 12:44:00;;;;;;;6.55;1.67;;;9.30;99.90;;;;;;5081450;28;20341;-69
2022/12/29 12:46:58;;;;;;;4.03;1.60;;;9.30;99.90;;;;;;5057649;28;20059;-71
2022/12/29 12:49:39;;;;;;;4.15;1.30;;;9.40;99.90;;;;;;5051021;28;20080;-69
2022/12/29 12:52:32;;;;;;;4.60;1.08;;;9.20;99.90;;;;;;5057484;28;20111;-70
2022/12/29 12:55:04;;;;;;;2.38;0.80;;;8.90;99.90;;;;;;5057998;28;20048;-71
2022/12/29 12:57:40;;;;;;;2.22;0.80;;;8.70;99.90;;;;;;5059245;28;20055;-71
2022/12/29 13:00:11;;;;;;;3.42;0.95;;;8.40;99.90;;;;;;5058041;28;20075;-70
2022/12/29 13:02:54;;;;;;;5.05;1.15;;;8.30;99.90;;;;;;5077582;28;20133;-71
2022/12/29 13:05:27;;;;;;;5.43;1.75;;;8.30;99.90;;;;;;5059968;28;20122;-74
2022/12/29 13:08:17;;;;;;;4.60;1.30;;;8.30;99.90;;;;;;5075599;28;20053;-71
2022/12/29 13:11:08;;;;;;;6.03;1.42;;;8.40;99.90;;;;;;5077219;28;20044;-71
2022/12/29 13:13:57;;;;;;;6.93;1.70;;;8.40;99.90;;;;;;5077036;28;20674;-71
2022/12/29 13:16:41;;;;;;;4.15;1.50;;;8.40;99.90;;;;;;5077481;28;20052;-72
2022/12/29 13:19:22;;;;;;;5.00;1.10;;;8.50;99.90;;;;;;5061550;28;20040;-74
2022/12/29 13:22:15;;;;;;;6.25;1.65;;;8.60;99.90;;;;;;5065874;28;20072;-71
2022/12/29 13:24:41;;;;;;;5.00;1.45;;;8.70;99.90;;;;;;5090662;28;20053;-71
2022/12/29 13:27:23;;;;;;;6.47;1.90;;;8.80;99.90;;;;;;5056999;28;20051;-68
2022/12/29 13:29:51;;;;;;;5.25;1.50;;;8.90;99.90;;;;;;5055338;28;20057;-69
2022/12/29 13:32:46;;;;;;;5.13;1.42;;;8.90;99.90;;;;;;5057741;28;20052;-69
2022/12/29 13:35:24;;;;;;;7.57;2.22;;;8.90;99.90;;;;;;5057112;28;20057;-69
2022/12/29 13:38:25;;;;;;;7.65;1.80;;;9.00;99.90;;;;;;5038957;28;20067;-69
2022/12/29 13:40:58;;;;;;;8.50;2.30;;;9.00;99.90;;;;;;5057884;28;20496;-69
2022/12/29 13:43:27;;;;;;;7.35;2.25;;;9.10;99.90;;;;;;5056806;28;20056;-68
2022/12/29 13:46:04;;;;;;;7.85;1.98;;;9.10;99.90;;;;;;5060451;28;20040;-69
2022/12/29 13:48:51;;;;;;;5.22;2.03;;;9.20;99.90;;;;;;5062750;28;20055;-69